createdAt,value
2019-03-30T00:02:10.045Z,29.73
2019-03-30T00:04:40.611Z,35.13
2019-03-30T00:07:11.056Z,26.90
2019-03-30T00:09:41.448Z,30.73
2019-03-30T00:12:12.026Z,31.43
2019-03-30T00:14:42.696Z,39.33
2019-03-30T00:17:13.114Z,34.97
2019-03-30T00:19:43.490Z,32.37
2019-03-30T00:22:13.971Z,27.30
2019-03-30T00:24:44.452Z,35.20
2019-03-30T00:30:59.785Z,23.50
2019-03-30T00:33:30.298Z,22.07
2019-03-30T00:36:00.786Z,29.87
2019-03-30T00:38:31.458Z,26.87
2019-03-30T00:41:02.358Z,33.60
2019-03-30T00:43:32.785Z,23.57
2019-03-30T00:46:03.165Z,33.90
2019-03-30T00:48:33.589Z,34.47
2019-03-30T00:51:04.029Z,37.50
2019-03-30T00:53:34.529Z,33.77
2019-03-30T00:56:04.856Z,24.40
2019-03-30T01:02:07.941Z,20.67
2019-03-30T01:04:38.457Z,26.80
2019-03-30T01:07:08.911Z,25.70
2019-03-30T01:09:39.396Z,27.70
2019-03-30T01:12:10.779Z,30.23
2019-03-30T01:14:41.191Z,31.43
2019-03-30T01:17:11.621Z,28.60
2019-03-30T01:19:41.909Z,27.97
2019-03-30T01:22:12.469Z,25.03
2019-03-30T01:24:43.096Z,27.13
2019-03-30T01:34:30.558Z,18.47
2019-03-30T01:37:01.047Z,26.83
2019-03-30T01:39:31.406Z,26.60
2019-03-30T01:42:01.699Z,25.70
2019-03-30T01:44:32.050Z,19.00
2019-03-30T01:47:02.387Z,24.90
2019-03-30T01:49:32.819Z,23.17
2019-03-30T01:52:03.254Z,23.03
2019-03-30T01:54:33.794Z,24.83
2019-03-30T01:57:04.419Z,24.30
2019-03-30T01:59:34.987Z,27.67
2019-03-30T02:02:05.620Z,28.17
2019-03-30T02:04:36.146Z,26.50
2019-03-30T02:07:06.587Z,27.10
2019-03-30T02:09:37.081Z,22.30
2019-03-30T02:12:07.621Z,27.00
2019-03-30T02:14:38.173Z,25.87
2019-03-30T02:17:08.669Z,22.43
2019-03-30T02:19:39.175Z,27.10
2019-03-30T02:22:09.685Z,21.63
2019-03-30T02:24:40.243Z,26.53
2019-03-30T02:27:10.784Z,21.53
2019-03-30T02:29:41.187Z,27.80
2019-03-30T02:32:11.637Z,28.37
2019-03-30T02:34:42.170Z,24.80
2019-03-30T02:37:12.714Z,25.50
2019-03-30T02:39:43.263Z,23.83
2019-03-30T02:42:13.778Z,22.17
2019-03-30T02:44:44.182Z,19.70
2019-03-30T02:47:14.644Z,27.83
2019-03-30T02:49:44.910Z,21.43
2019-03-30T02:52:15.392Z,29.23
2019-03-30T02:54:45.958Z,30.80
2019-03-30T02:57:18.457Z,26.37
2019-03-30T02:59:48.808Z,20.73
2019-03-30T03:02:19.208Z,29.97
2019-03-30T03:04:49.558Z,26.43
2019-03-30T03:07:20.004Z,24.63
2019-03-30T03:09:50.433Z,23.10
2019-03-30T03:12:21.102Z,25.23
2019-03-30T03:14:51.579Z,26.87
2019-03-30T03:17:21.976Z,25.27
2019-03-30T03:19:52.443Z,21.13
2019-03-30T03:22:23.039Z,27.03
2019-03-30T03:24:53.606Z,20.73
2019-03-30T03:27:24.164Z,19.60
2019-03-30T03:29:54.611Z,28.90
2019-03-30T03:32:25.175Z,28.13
2019-03-30T03:34:56.026Z,27.00
2019-03-30T03:37:43.285Z,29.40
2019-03-30T03:39:58.549Z,23.20
2019-03-30T03:42:29.169Z,28.43
2019-03-30T03:45:01.504Z,29.90
2019-03-30T03:47:31.972Z,30.93
2019-03-30T03:50:02.301Z,31.70
2019-03-30T03:52:32.743Z,29.23
2019-03-30T03:55:04.291Z,25.20
2019-03-30T03:57:39.060Z,16.33
2019-03-30T04:00:11.569Z,20.93
2019-03-30T04:02:45.201Z,27.50
2019-03-30T04:05:15.609Z,25.77
2019-03-30T04:07:47.754Z,23.23
2019-03-30T04:10:18.854Z,26.93
2019-03-30T04:12:50.872Z,24.77
2019-03-30T04:15:27.530Z,21.33
2019-03-30T04:17:57.882Z,27.03
2019-03-30T04:20:28.401Z,28.03
2019-03-30T04:22:59.328Z,27.87
2019-03-30T04:25:29.709Z,18.33
2019-03-30T04:28:00.038Z,29.90
2019-03-30T04:30:30.570Z,23.77
2019-03-30T04:33:01.014Z,29.90
2019-03-30T04:35:31.495Z,29.67
2019-03-30T04:38:02.035Z,30.87
2019-03-30T04:40:32.390Z,30.53
2019-03-30T04:43:02.862Z,29.93
2019-03-30T04:45:33.257Z,29.70
2019-03-30T04:48:03.601Z,27.23
2019-03-30T04:50:34.135Z,25.50
2019-03-30T04:53:04.580Z,25.03
2019-03-30T04:55:35.045Z,21.63
2019-03-30T04:58:08.907Z,17.77
2019-03-30T05:00:37.584Z,17.87
2019-03-30T05:03:08.114Z,24.73
2019-03-30T05:05:38.570Z,21.13
2019-03-30T05:08:08.997Z,20.97
2019-03-30T05:10:39.391Z,28.03
2019-03-30T05:13:09.855Z,26.07
2019-03-30T05:15:40.473Z,24.23
2019-03-30T05:18:10.967Z,17.70
2019-03-30T05:20:41.280Z,25.23
2019-03-30T05:23:11.603Z,23.90
2019-03-30T05:25:42.003Z,21.10
2019-03-30T05:28:12.400Z,24.90
2019-03-30T05:30:42.807Z,21.63
2019-03-30T05:33:14.501Z,27.67
2019-03-30T05:35:48.689Z,23.60
2019-03-30T05:38:19.215Z,23.43
2019-03-30T05:40:50.331Z,26.57
2019-03-30T05:43:20.878Z,25.33
2019-03-30T05:45:51.328Z,23.57
2019-03-30T05:48:21.655Z,20.13
2019-03-30T05:50:52.160Z,26.37
2019-03-30T05:53:22.499Z,22.13
2019-03-30T05:55:52.843Z,24.53
2019-03-30T05:58:32.234Z,22.17
2019-03-30T06:01:02.707Z,24.03
2019-03-30T06:03:33.245Z,24.60
2019-03-30T06:06:03.754Z,22.40
2019-03-30T06:08:34.282Z,17.13
2019-03-30T06:11:04.864Z,22.87
2019-03-30T06:13:35.265Z,16.97
2019-03-30T06:16:05.798Z,23.20
2019-03-30T06:18:36.419Z,21.43
2019-03-30T06:21:06.949Z,15.33
2019-03-30T06:23:37.478Z,15.97
2019-03-30T06:26:08.201Z,16.43
2019-03-30T06:28:38.709Z,15.00
2019-03-30T06:31:09.243Z,24.10
2019-03-30T06:33:39.828Z,19.47
2019-03-30T06:36:10.244Z,16.97
2019-03-30T06:38:40.807Z,13.77
2019-03-30T06:41:11.211Z,14.43
2019-03-30T06:43:41.495Z,13.90
2019-03-30T06:46:18.131Z,19.50
2019-03-30T06:48:53.070Z,16.33
2019-03-30T06:51:23.689Z,16.00
2019-03-30T06:53:54.201Z,15.90
2019-03-30T06:56:24.739Z,19.40
2019-03-30T07:02:03.630Z,17.40
2019-03-30T07:04:34.005Z,17.57
2019-03-30T07:07:04.884Z,18.77
2019-03-30T07:09:37.953Z,17.60
2019-03-30T07:12:09.205Z,22.67
2019-03-30T07:18:13.446Z,12.87
2019-03-30T07:20:44.938Z,15.07
2019-03-30T07:23:21.283Z,16.57
2019-03-30T07:25:56.057Z,12.70
2019-03-30T07:28:27.434Z,12.43
2019-03-30T07:30:59.370Z,11.13
2019-03-30T07:33:30.746Z,12.43
2019-03-30T07:36:02.195Z,11.70
2019-03-30T07:38:51.987Z,14.97
2019-03-30T07:41:22.913Z,17.13
2019-03-30T07:43:53.430Z,13.10
2019-03-30T07:46:23.884Z,9.97
2019-03-30T07:48:54.288Z,10.20
2019-03-30T07:51:24.698Z,17.83
2019-03-30T07:53:55.130Z,14.43
2019-03-30T07:56:25.558Z,13.20
2019-03-30T07:58:56.166Z,11.00
2019-03-30T08:01:26.682Z,13.77
2019-03-30T08:03:57.162Z,9.90
2019-03-30T08:06:27.666Z,12.80
2019-03-30T08:08:58.316Z,14.70
2019-03-30T08:11:28.704Z,13.60
2019-03-30T08:13:59.232Z,12.50
2019-03-30T08:16:29.964Z,11.73
2019-03-30T08:19:00.581Z,12.43
2019-03-30T08:21:31.166Z,12.23
2019-03-30T08:24:02.127Z,10.10
2019-03-30T08:26:35.517Z,13.10
2019-03-30T08:29:04.742Z,11.13
2019-03-30T08:31:35.112Z,11.27
2019-03-30T08:34:05.932Z,9.87
2019-03-30T08:36:36.458Z,12.47
2019-03-30T08:39:08.121Z,9.43
2019-03-30T08:41:38.697Z,10.70
2019-03-30T08:44:09.125Z,11.07
2019-03-30T08:46:39.660Z,11.73
2019-03-30T08:49:10.082Z,9.07
2019-03-30T08:51:41.847Z,8.80
2019-03-30T08:54:12.336Z,9.87
2019-03-30T08:56:42.779Z,8.60
2019-03-30T08:59:13.454Z,7.77
2019-03-30T09:01:43.876Z,8.00
2019-03-30T09:04:14.398Z,8.30
2019-03-30T09:06:44.814Z,7.57
2019-03-30T09:09:15.329Z,9.57
2019-03-30T09:11:45.775Z,8.17
2019-03-30T09:17:48.624Z,9.73
2019-03-30T09:20:19.133Z,8.87
2019-03-30T09:22:49.596Z,10.00
2019-03-30T09:25:19.962Z,6.73
2019-03-30T09:27:50.336Z,9.27
2019-03-30T09:30:20.790Z,7.70
2019-03-30T09:32:51.286Z,8.70
2019-03-30T09:35:21.624Z,8.37
2019-03-30T09:37:52.277Z,9.10
2019-03-30T09:40:22.833Z,8.53
2019-03-30T09:42:53.395Z,7.90
2019-03-30T09:45:23.973Z,8.57
2019-03-30T09:47:55.867Z,7.87
2019-03-30T09:50:26.393Z,8.73
2019-03-30T09:52:57.715Z,9.10
2019-03-30T09:55:28.337Z,10.23
2019-03-30T09:57:58.962Z,8.83
2019-03-30T10:00:29.565Z,8.27
2019-03-30T10:02:59.892Z,8.87
2019-03-30T10:05:30.326Z,9.30
2019-03-30T10:08:00.768Z,8.77
2019-03-30T10:10:34.067Z,9.03
2019-03-30T10:17:26.984Z,8.17
2019-03-30T10:20:04.303Z,7.40
2019-03-30T10:22:29.646Z,8.47
2019-03-30T10:25:00.285Z,9.07
2019-03-30T10:27:30.755Z,8.30
2019-03-30T10:37:06.216Z,8.07
2019-03-30T10:39:36.751Z,9.10
2019-03-30T10:42:07.059Z,7.30
2019-03-30T10:44:37.593Z,8.13
2019-03-30T10:47:08.070Z,8.80
2019-03-30T10:49:38.537Z,7.40
2019-03-30T10:52:08.945Z,6.97
2019-03-30T10:54:52.093Z,6.80
2019-03-30T10:57:11.610Z,7.40
2019-03-30T10:59:42.145Z,6.67
2019-03-30T11:02:13.199Z,6.67
2019-03-30T11:04:43.721Z,7.80
2019-03-30T11:07:14.175Z,6.50
2019-03-30T11:09:44.613Z,6.70
2019-03-30T11:12:15.071Z,7.73
2019-03-30T11:14:45.467Z,8.27
2019-03-30T11:17:19.240Z,6.43
2019-03-30T11:19:48.077Z,8.00
2019-03-30T11:22:18.632Z,7.07
2019-03-30T11:24:49.014Z,6.33
2019-03-30T11:27:19.377Z,5.97
2019-03-30T11:29:49.926Z,6.50
2019-03-30T11:32:20.450Z,7.33
2019-03-30T11:34:50.860Z,6.67
2019-03-30T11:37:21.289Z,6.60
2019-03-30T11:39:51.658Z,6.60
2019-03-30T11:42:22.041Z,6.70
2019-03-30T11:44:52.510Z,7.10
2019-03-30T11:47:24.219Z,7.67
2019-03-30T11:49:54.677Z,6.47
2019-03-30T11:52:25.248Z,5.40
2019-03-30T11:54:55.780Z,5.83
2019-03-30T11:57:26.234Z,5.77
2019-03-30T11:59:56.709Z,7.13
2019-03-30T12:02:28.357Z,5.93
2019-03-30T12:04:59.206Z,5.87
2019-03-30T12:07:29.747Z,5.83
2019-03-30T12:10:00.725Z,5.90
2019-03-30T12:12:31.080Z,6.80
2019-03-30T12:15:01.507Z,6.07
2019-03-30T12:17:32.057Z,6.17
2019-03-30T12:20:02.628Z,5.70
2019-03-30T12:22:33.126Z,6.53
2019-03-30T12:25:03.677Z,5.83
2019-03-30T12:27:34.120Z,5.37
2019-03-30T12:30:04.824Z,6.10
2019-03-30T12:32:35.106Z,6.37
2019-03-30T12:35:05.930Z,5.83
2019-03-30T12:37:36.451Z,5.83
2019-03-30T12:40:07.076Z,4.80
2019-03-30T12:42:37.610Z,4.33
2019-03-30T12:45:08.860Z,4.40
2019-03-30T12:47:39.281Z,5.73
2019-03-30T12:50:09.780Z,7.00
2019-03-30T12:52:40.261Z,7.17
2019-03-30T12:55:10.667Z,7.20
2019-03-30T12:57:41.155Z,7.93
2019-03-30T13:00:11.787Z,8.73
2019-03-30T13:02:42.268Z,7.33
2019-03-30T13:05:12.777Z,6.80
2019-03-30T13:07:43.533Z,6.33
2019-03-30T13:10:14.108Z,5.73
2019-03-30T13:12:44.559Z,8.03
2019-03-30T13:15:15.042Z,6.67
2019-03-30T13:17:45.360Z,6.57
2019-03-30T13:20:15.645Z,5.93
2019-03-30T13:22:46.204Z,5.70
2019-03-30T13:25:16.714Z,5.00
2019-03-30T13:27:47.138Z,6.00
2019-03-30T13:30:17.818Z,5.17
2019-03-30T13:32:48.236Z,5.73
2019-03-30T13:35:18.661Z,5.40
2019-03-30T13:37:49.140Z,5.57
2019-03-30T13:40:19.958Z,6.90
2019-03-30T13:42:50.373Z,7.20
2019-03-30T13:45:20.750Z,7.77
2019-03-30T13:47:51.320Z,6.63
2019-03-30T13:50:21.884Z,8.10
2019-03-30T13:52:52.250Z,8.67
2019-03-30T13:55:22.852Z,6.07
2019-03-30T13:57:53.318Z,7.47
2019-03-30T14:00:23.869Z,8.40
2019-03-30T14:02:54.334Z,9.20
2019-03-30T14:05:24.850Z,7.27
2019-03-30T14:07:55.398Z,8.53
2019-03-30T14:10:25.766Z,7.47
2019-03-30T14:12:56.318Z,8.10
2019-03-30T14:15:26.768Z,8.17
2019-03-30T14:17:57.371Z,7.77
2019-03-30T14:20:27.999Z,8.93
2019-03-30T14:22:58.374Z,10.50
2019-03-30T14:25:30.439Z,11.13
2019-03-30T14:28:03.022Z,10.23
2019-03-30T14:30:33.490Z,10.23
2019-03-30T14:33:03.869Z,9.27
2019-03-30T14:35:34.417Z,9.37
2019-03-30T14:38:04.976Z,10.63
2019-03-30T14:40:35.461Z,8.83
2019-03-30T14:43:06.017Z,10.07
2019-03-30T14:49:08.828Z,10.13
2019-03-30T14:51:39.271Z,9.50
2019-03-30T14:54:09.559Z,12.00
2019-03-30T14:56:45.712Z,10.13
2019-03-30T14:59:14.432Z,10.50
2019-03-30T15:01:44.467Z,10.83
2019-03-30T15:04:15.017Z,10.53
2019-03-30T15:06:45.450Z,10.60
2019-03-30T15:09:15.825Z,10.77
2019-03-30T15:11:46.285Z,12.83
2019-03-30T15:14:16.750Z,11.83
2019-03-30T15:16:47.214Z,12.33
2019-03-30T15:19:17.654Z,12.10
2019-03-30T15:21:48.172Z,12.90
2019-03-30T15:24:18.683Z,12.17
2019-03-30T15:26:59.768Z,12.60
2019-03-30T15:29:21.192Z,13.20
2019-03-30T15:31:51.713Z,11.00
2019-03-30T15:34:22.174Z,13.23
2019-03-30T15:36:52.707Z,14.90
2019-03-30T15:39:23.181Z,16.23
2019-03-30T15:41:53.496Z,17.53
2019-03-30T15:44:23.923Z,17.60
2019-03-30T15:46:54.561Z,19.77
2019-03-30T15:49:25.165Z,20.73
2019-03-30T15:51:55.698Z,17.40
2019-03-30T15:54:26.220Z,20.27
2019-03-30T15:56:56.654Z,20.90
2019-03-30T15:59:27.386Z,20.00
2019-03-30T16:01:57.924Z,21.40
2019-03-30T16:04:28.346Z,21.47
2019-03-30T16:06:58.698Z,22.30
2019-03-30T16:09:29.069Z,21.67
2019-03-30T16:11:59.454Z,23.93
2019-03-30T16:18:05.426Z,22.73
2019-03-30T16:20:35.722Z,23.50
2019-03-30T16:23:06.369Z,23.33
2019-03-30T16:25:36.756Z,22.33
2019-03-30T16:28:07.147Z,23.63
2019-03-30T16:30:37.540Z,22.17
2019-03-30T16:33:07.937Z,23.83
2019-03-30T16:35:38.370Z,25.07
2019-03-30T16:38:08.670Z,27.77
2019-03-30T16:40:38.926Z,23.73
2019-03-30T16:43:09.235Z,28.73
2019-03-30T16:45:39.484Z,24.57
2019-03-30T16:48:09.712Z,26.93
2019-03-30T16:50:40.023Z,27.43
2019-03-30T16:53:10.435Z,26.97
2019-03-30T16:55:41.391Z,25.20
2019-03-30T16:58:11.858Z,28.20
2019-03-30T17:04:23.625Z,27.43
2019-03-30T17:06:54.045Z,27.77
2019-03-30T17:09:24.536Z,30.53
2019-03-30T17:11:55.129Z,28.73
2019-03-30T17:18:12.862Z,29.90
2019-03-30T17:20:43.202Z,26.83
2019-03-30T17:23:13.831Z,27.17
2019-03-30T17:25:44.297Z,23.60
2019-03-30T17:28:14.767Z,23.70
2019-03-30T17:30:45.347Z,27.67
2019-03-30T17:33:15.881Z,29.07
2019-03-30T17:35:46.631Z,26.40
2019-03-30T17:38:17.179Z,27.60
2019-03-30T17:40:47.871Z,27.20
2019-03-30T17:43:21.166Z,22.97
2019-03-30T17:45:51.787Z,24.77
2019-03-30T17:48:22.483Z,27.13
2019-03-30T17:50:52.950Z,26.17
2019-03-30T17:53:26.548Z,22.70
2019-03-30T17:55:56.960Z,21.97
2019-03-30T17:58:27.409Z,23.37
2019-03-30T18:00:58.032Z,21.53
2019-03-30T18:03:28.428Z,19.90
2019-03-30T18:05:58.967Z,20.07
2019-03-30T18:08:29.682Z,19.60
2019-03-30T18:11:03.892Z,17.97
2019-03-30T18:14:11.856Z,18.90
2019-03-30T18:16:44.787Z,23.13
2019-03-30T18:19:15.307Z,21.53
2019-03-30T18:22:02.230Z,24.57
2019-03-30T18:24:24.679Z,23.73
2019-03-30T18:26:57.435Z,25.57
2019-03-30T18:29:27.816Z,23.27
2019-03-30T18:31:58.916Z,24.27
2019-03-30T18:34:29.732Z,23.77
2019-03-30T18:37:00.333Z,24.03
2019-03-30T18:39:31.818Z,28.00
2019-03-30T18:42:02.322Z,23.83
2019-03-30T18:44:32.789Z,28.90
2019-03-30T18:47:04.270Z,20.07
2019-03-30T18:49:34.809Z,26.87
2019-03-30T18:52:05.342Z,32.60
2019-03-30T18:54:36.443Z,28.47
2019-03-30T18:57:06.934Z,24.67
2019-03-30T18:59:37.390Z,32.67
2019-03-30T19:02:07.840Z,28.80
2019-03-30T19:04:38.164Z,26.13
2019-03-30T19:07:08.770Z,34.17
2019-03-30T19:09:39.254Z,30.37
2019-03-30T19:12:09.722Z,27.93
2019-03-30T19:14:40.201Z,32.53
2019-03-30T19:17:10.721Z,30.40
2019-03-30T19:19:41.172Z,30.93
2019-03-30T19:22:11.736Z,26.57
2019-03-30T19:24:42.209Z,31.23
2019-03-30T19:27:12.635Z,27.30
2019-03-30T19:29:43.156Z,28.07
2019-03-30T19:32:13.482Z,29.53
2019-03-30T19:34:43.903Z,21.37
2019-03-30T19:37:14.497Z,21.50
2019-03-30T19:39:44.899Z,27.80
2019-03-30T19:42:15.930Z,28.37
2019-03-30T19:44:47.167Z,28.53
2019-03-30T19:47:17.727Z,29.83
2019-03-30T19:49:48.579Z,29.73
2019-03-30T19:52:19.137Z,27.50
2019-03-30T19:54:49.553Z,28.13
2019-03-30T19:57:19.890Z,31.00
2019-03-30T19:59:50.376Z,29.27
2019-03-30T20:02:21.024Z,28.17
2019-03-30T20:04:51.383Z,31.70
2019-03-30T20:07:21.977Z,31.93
2019-03-30T20:09:52.559Z,24.63
2019-03-30T20:12:23.127Z,27.47
2019-03-30T20:14:53.850Z,26.83
2019-03-30T20:17:24.298Z,26.07
2019-03-30T20:19:54.658Z,26.63
2019-03-30T20:22:25.039Z,31.73
2019-03-30T20:24:55.559Z,31.90
2019-03-30T20:27:26.164Z,25.80
2019-03-30T20:29:56.633Z,23.33
2019-03-30T20:32:27.100Z,27.10
2019-03-30T20:34:57.760Z,30.03
2019-03-30T20:37:28.358Z,26.40
2019-03-30T20:39:59.949Z,25.70
2019-03-30T20:42:30.510Z,24.77
2019-03-30T20:45:00.976Z,18.90
2019-03-30T20:47:31.252Z,27.37
2019-03-30T20:50:01.746Z,30.53
2019-03-30T20:52:32.776Z,27.83
2019-03-30T20:55:03.682Z,26.50
2019-03-30T20:57:34.184Z,29.87
2019-03-30T21:00:05.903Z,28.13
2019-03-30T21:02:36.226Z,21.63
2019-03-30T21:05:08.376Z,21.60
2019-03-30T21:07:41.764Z,25.77
2019-03-30T21:10:14.396Z,27.30
2019-03-30T21:12:44.122Z,26.97
2019-03-30T21:15:14.723Z,34.10
2019-03-30T21:17:45.147Z,30.00
2019-03-30T21:20:17.426Z,23.27
2019-03-30T21:22:47.972Z,29.93
2019-03-30T21:25:18.395Z,34.73
2019-03-30T21:27:48.923Z,26.73
2019-03-30T21:30:19.562Z,32.33
2019-03-30T21:32:50.044Z,27.97
2019-03-30T21:35:29.380Z,25.03
2019-03-30T21:37:59.862Z,26.60
2019-03-30T21:40:39.467Z,24.60
2019-03-30T21:43:09.963Z,19.83
2019-03-30T21:45:40.250Z,17.27
2019-03-30T21:48:10.679Z,16.47
2019-03-30T21:50:41.321Z,22.07
2019-03-30T21:53:11.921Z,28.90
2019-03-30T21:55:42.445Z,22.37
2019-03-30T21:58:13.335Z,26.93
2019-03-30T22:00:43.787Z,23.30
2019-03-30T22:03:14.353Z,26.87
2019-03-30T22:05:44.784Z,21.13
2019-03-30T22:08:17.188Z,32.20
2019-03-30T22:10:47.390Z,23.60
2019-03-30T22:13:21.261Z,22.70
2019-03-30T22:19:22.425Z,24.07
2019-03-30T22:21:52.946Z,29.33
2019-03-30T22:24:23.521Z,29.97
2019-03-30T22:26:54.103Z,23.10
2019-03-30T22:29:24.659Z,23.83
2019-03-30T22:31:55.028Z,19.70
2019-03-30T22:34:25.671Z,23.67
2019-03-30T22:36:56.194Z,27.87
2019-03-30T22:39:26.764Z,23.23
2019-03-30T22:41:57.298Z,23.93
2019-03-30T22:44:27.816Z,33.07
2019-03-30T22:46:58.314Z,21.63
2019-03-30T22:49:28.845Z,32.27
2019-03-30T22:52:00.263Z,27.27
2019-03-30T22:54:30.683Z,23.97
2019-03-30T22:57:01.511Z,28.10
2019-03-30T22:59:32.043Z,30.97
2019-03-30T23:02:02.594Z,29.43
2019-03-30T23:04:33.045Z,27.07
2019-03-30T23:07:03.595Z,26.67
2019-03-30T23:09:34.119Z,22.73
2019-03-30T23:12:04.585Z,32.73
2019-03-30T23:14:35.095Z,33.03
2019-03-30T23:17:06.143Z,34.97
2019-03-30T23:19:36.637Z,38.40
2019-03-30T23:22:07.252Z,35.00
2019-03-30T23:24:37.806Z,34.33
2019-03-30T23:27:08.297Z,31.03
2019-03-30T23:29:38.864Z,34.00
2019-03-30T23:32:09.359Z,36.07
2019-03-30T23:34:40.505Z,35.03
2019-03-30T23:37:11.046Z,30.63
2019-03-30T23:39:41.503Z,37.77
2019-03-30T23:42:11.848Z,28.60
2019-03-30T23:44:42.239Z,33.93
2019-03-30T23:47:12.781Z,36.30
2019-03-30T23:49:43.208Z,27.27
2019-03-30T23:52:13.785Z,32.20
2019-03-30T23:54:44.293Z,28.27
2019-03-30T23:57:14.837Z,27.43
2019-03-30T23:59:47.054Z,29.57
